F/V Le Mirador — FPHO — position and weather

sailwx.info

Track history (hours):
 
Tides and Currents Weather Stations Pressure Air Temp Water Temp Dewpoint Dewpoint Depression Visibility Wind Speed Wind Dir Waves Ship Positions

F/V Le Mirador

Last reported at 2014-Nov-21 08:14 UTC. Time now 2014-Nov-23 09:57 UTC.
Position N 46°03' W 003°02'.

Length 19 m; draft 2.8 m.

Type: Fishing. MMSI: 227901000.

Date/timePositionNaut miles runAvg speedWind from/ knotsBaromVisibWave heightAir tempDewpointWater temp
2014-Nov-21 08:14N 46°03' W 003°02'1 1.2
2014-Nov-21 07:13N 46°03' W 003°03'1 0.8
2014-Nov-21 05:24N 46°03' W 003°02'1 1.6
2014-Nov-21 04:30N 46°02' W 003°04'0 0.1
2014-Nov-21 02:29N 46°03' W 003°04'0 0.2
2014-Nov-21 01:26N 46°03' W 003°03'0 0.0
2014-Nov-20 23:20N 46°03' W 003°03'2 0.1
2014-Nov-20 07:33N 46°02' W 003°00'38 5.3
2014-Nov-20 00:28N 46°20' W 002°13'5 5.6
2014-Nov-19 23:33N 46°22' W 002°06'6 5.6
2014-Nov-19 22:33N 46°25' W 001°59'6 5.7
2014-Nov-19 21:33N 46°27' W 001°51'4 3.8
2014-Nov-19 20:33N 46°30' W 001°47'4 4.5
2014-Nov-19 19:33N 46°27' W 001°52'9 9.0
2014-Nov-19 18:33N 46°22' W 002°03'  
2014-Nov-17 01:30N 46°16' W 002°00'8 8.6
2014-Nov-17 00:34N 46°23' W 001°53'8 7.8
2014-Nov-16 23:34N 46°30' W 001°48'0 0.3
2014-Nov-16 22:34N 46°30' W 001°47'0 0.2
2014-Nov-16 21:33N 46°30' W 001°47'7 6.8
2014-Nov-16 20:34N 46°24' W 001°52'  
Track history (hours):
 
Tides and Currents Weather Stations Pressure Air Temp Water Temp Dewpoint Dewpoint Depression Visibility Wind Speed Wind Dir Waves Ship Positions

F/V Le Mirador

Last reported at 2014-Nov-21 08:14 UTC. Time now 2014-Nov-23 09:57 UTC.
Position N 46°03' W 003°02'.

Length 19 m; draft 2.8 m.

Type: Fishing. MMSI: 227901000.

Date/timePositionNaut miles runAvg speedWind from/ knotsBaromVisibWave heightAir tempDewpointWater temp
2014-Nov-21 08:14N 46°03' W 003°02'1 1.2
2014-Nov-21 07:13N 46°03' W 003°03'1 0.8
2014-Nov-21 05:24N 46°03' W 003°02'1 1.6
2014-Nov-21 04:30N 46°02' W 003°04'0 0.1
2014-Nov-21 02:29N 46°03' W 003°04'0 0.2
2014-Nov-21 01:26N 46°03' W 003°03'0 0.0
2014-Nov-20 23:20N 46°03' W 003°03'2 0.1
2014-Nov-20 07:33N 46°02' W 003°00'38 5.3
2014-Nov-20 00:28N 46°20' W 002°13'5 5.6
2014-Nov-19 23:33N 46°22' W 002°06'6 5.6
2014-Nov-19 22:33N 46°25' W 001°59'6 5.7
2014-Nov-19 21:33N 46°27' W 001°51'4 3.8
2014-Nov-19 20:33N 46°30' W 001°47'4 4.5
2014-Nov-19 19:33N 46°27' W 001°52'9 9.0
2014-Nov-19 18:33N 46°22' W 002°03'  
2014-Nov-17 01:30N 46°16' W 002°00'8 8.6
2014-Nov-17 00:34N 46°23' W 001°53'8 7.8
2014-Nov-16 23:34N 46°30' W 001°48'0 0.3
2014-Nov-16 22:34N 46°30' W 001°47'0 0.2
2014-Nov-16 21:33N 46°30' W 001°47'7 6.8
2014-Nov-16 20:34N 46°24' W 001°52'  

Dump ship's entire track history